Terminal Aerodrome Forecast
Issued by NWS

Current Version | Previous Version | Text Only | Print | Product List | Glossary On
Versions: 1 2 3 4 5 6 7 8 9 10 11 12
000
FTPQ31 PGUM 101120
TAFGUM
TAF

TAF
PKWA 101120Z 1012/1112 08015KT P6SM VCSH SCT018 SCT040 BKN100
      TEMPO 1012/1016 09015G25KT 5SM SHRA SCT015 BKN030=

USA.gov is the U.S. government's official web portal to all federal, state and local government web resources and services.